Lake Levels Lake Levels   »   United States   »   Texas
LAKES RIVERS MARINAS NEWS HOUSES EVENTS MAPS
1,681 Lakes:
Lake Store

Lake Levels in Texas, United States

Lake Name Current
Level
Full Pool +/-
Full Pool
Reading
Date - Time
Alan Henry (TX) 2,218.60 2,224.00 -5.40 5/26/2019  9:30 AM
Amistad (TX) 1,084.60 1,117.00 -32.40 5/26/2019  3:15 PM
Amon Carter (TX) 922.28 920.00 2.28 5/26/2019  2:00 PM
Aquilla (TX) 545.34 537.50 7.84 5/26/2019  3:30 PM
Arlington (TX) 549.89 550.00 -0.11 5/26/2019  3:15 PM
Arrowhead (TX) 926.18 926.00 0.18 5/26/2019  3:00 PM
Athens (TX) 440.47 440.00 0.47 5/26/2019  2:30 PM
Austin (TX) 492.12 492.80 -0.68 5/26/2019  3:00 PM
Bardwell (TX) 433.10 421.00 12.10 5/26/2019  3:30 PM
Belton (TX) 603.76 594.00 9.76 5/26/2019  3:00 PM
Benbrook (TX) 706.31 694.00 12.31 5/26/2019  3:00 PM
Bob Sandlin (TX) 337.76 337.50 0.26 5/26/2019  10:41 AM
Bonham (TX) 565.05 565.00 0.05 5/26/2019  1:00 PM
Brady Creek (TX) 1,743.03 1,743.00 0.03 5/26/2019  3:45 PM
Bridgeport (TX) 836.08 836.00 0.08 5/26/2019  3:00 PM
Brownwood (TX) 1,425.31 1,425.00 0.31 5/26/2019  3:30 PM
Buchanan (TX) 1,018.07 1,020.50 -2.43 5/26/2019  10:05 AM
Caddo (LA TX) 171.50 168.50 3.00 5/26/2019  6:00 AM
Canyon (TX) 909.88 909.00 0.88 5/26/2019  11:15 AM
Cedar Creek (TX) 322.00 322.00 -0.00 5/26/2019  12:45 PM
Champion Creek (TX) 2,073.74 2,083.00 -9.26 5/26/2019  9:40 AM
Cherokee (TX) 280.20 280.00 0.20 5/26/2019  2:45 PM
Choke Canyon (TX) 206.55 220.50 -13.95 5/26/2019  7:30 AM
Cisco (TX) 1,521.39 1,520.00 1.39 5/26/2019  5:30 PM
Coleman (TX) 1,717.92 1,718.00 -0.08 5/26/2019  3:30 PM
Coleto Creek (TX) 98.16 98.28 -0.12 5/26/2019  3:00 PM
Colorado City (TX) 2,057.84 2,070.20 -12.36 5/26/2019  9:40 AM
Conroe (TX) 200.02 201.00 -0.98 5/26/2019  7:45 AM
Corpus Christi (TX) 94.10 94.00 0.10 5/26/2019  7:48 AM
E. V. Spence (TX) 1,862.90 1,898.00 -35.10 5/26/2019  3:00 PM
Eagle Mountain (TX) 649.61 649.00 0.61 5/26/2019  3:00 PM
Falcon (TX) 273.55 301.20 -27.65 5/26/2019  2:15 PM
Fork (TX) 403.02 403.00 0.02 5/26/2019  3:30 PM
Georgetown (TX) 801.56 791.00 10.56 5/26/2019  3:00 PM
Graham (TX) 1,075.37 1,075.00 0.37 5/26/2019  1:00 PM
Granbury (TX) 692.77 693.00 -0.23 5/26/2019  3:30 PM
Granger (TX) 509.91 504.00 5.91 5/26/2019  3:00 PM
Grapevine (TX) 551.37 535.00 16.37 5/26/2019  3:45 PM
Hords Creek (TX) 1,896.73 1,900.00 -3.27 5/26/2019  12:30 PM
Houston (TX) 41.94 41.70 0.24 5/26/2019  3:30 PM
Hubbard Creek (TX) 1,183.40 1,183.00 0.40 5/26/2019  2:15 PM
Hubert M Moss (TX) 715.02 715.00 0.02 5/26/2019  2:15 PM
Inks (TX) 887.08 886.90 0.18 5/26/2019  2:00 PM
Jacksonville (TX) 422.19 422.00 0.19 5/26/2019  12:00 AM
JB Thomas (TX) 2,233.91 2,258.00 -24.09 5/26/2019  1:45 PM
Jim Chapman (TX) 442.37 440.00 2.37 5/26/2019  10:41 AM
Joe Pool (TX) 530.24 522.00 8.24 5/26/2019  3:00 PM
Kemp (TX) 1,147.64 1,144.00 3.64 5/26/2019  3:15 PM
Kickapoo (TX) 1,045.57 1,045.00 0.57 5/26/2019  3:00 PM
Lake O' the Pines (TX) 240.59 228.50 12.09 5/26/2019  10:41 AM
Lavon (TX) 499.78 492.00 7.78 5/26/2019  11:00 AM
Leon (TX) 1,375.05 5/26/2019  3:45 PM
Lewisville (TX) 528.49 522.00 6.49 5/26/2019  3:15 PM
Limestone (TX) 363.07 363.00 0.07 5/26/2019  2:45 PM
Livingston (TX) 131.62 131.00 0.62 5/26/2019  12:00 AM
Lyndon B. Johnson (TX) 824.69 825.00 -0.31 5/26/2019  10:05 AM
MacKenzie (TX) 3,021.59 3,100.00 -78.41 5/26/2019  3:30 PM
Marble Falls (TX) 736.35 737.00 -0.65 5/26/2019  10:05 AM
Martin Creek (TX) 305.88 306.00 -0.12 5/26/2019  1:30 PM
Medina (TX) 1,064.11 1,062.00 2.11 5/26/2019  3:00 PM
Meredith (TX) 2,888.67 2,941.00 -52.33 5/26/2019  2:30 PM
Mexia (TX) 448.37 448.30 0.07 5/26/2019  3:15 PM
Millers Creek (TX) 1,335.27 1,334.00 1.27 5/26/2019  3:00 PM
Mineral Wells (TX) 863.80 863.00 0.80 5/26/2019  7:30 PM
Moss Creek (TX) 2,329.39 2,337.00 -7.61 5/26/2019  2:30 PM
Murvaul (TX) 265.59 265.50 0.09 5/26/2019  10:41 AM
Nacogdoches (TX) 279.45 279.00 0.45 5/26/2019  10:41 AM
Natural Dam Salt (TX) 2,447.29 2,457.00 -9.71 5/26/2019  12:00 AM
Navarro Mills (TX) 434.37 424.50 9.87 5/26/2019  3:00 PM
Nocona (TX) 827.95 827.00 0.95 5/26/2019  3:00 PM
O. C. Fisher (TX) 1,874.11 1,908.00 -33.89 5/26/2019  3:00 PM
O.H. Ivie (TX) 1,541.11 1,551.50 -10.39 5/26/2019  1:45 PM
Oak Creek (TX) 2,000.42 2,000.00 0.42 5/26/2019  12:00 AM
Palestine (TX) 345.67 345.00 0.67 5/26/2019  10:41 AM
Palo Pinto (TX) 867.03 867.00 0.03 5/26/2019  2:15 PM
Pat Cleburne (TX) 733.82 733.60 0.22 5/26/2019  3:00 PM
Pat Mayse (TX) 453.08 451.00 2.08 5/26/2019  10:41 AM
Phantom Hill (TX) 1,636.84 1,635.90 0.94 5/26/2019  3:30 PM
Possum Kingdom (TX) 999.01 1,000.00 -0.99 5/26/2019  9:09 AM
Proctor (TX) 1,167.68 1,162.00 5.68 5/26/2019  3:30 PM
Ray Hubbard (TX) 435.52 435.50 0.02 5/26/2019  2:45 PM
Ray Roberts (TX) 637.17 632.50 4.67 5/26/2019  2:15 PM
Red Bluff (TX) 2,819.14 2,827.13 -7.99 5/26/2019  1:15 PM
Richland Chambers (TX) 315.14 315.00 0.14 5/26/2019  12:45 PM
Sam Rayburn (TX) 170.42 164.40 6.02 5/26/2019  11:31 AM
Somerville (TX) 252.38 238.00 14.38 5/26/2019  3:00 PM
Squaw Creek (TX) 775.59 775.00 0.59 5/26/2019  3:00 PM
Stamford (TX) 1,418.72 1,417.00 1.72 5/26/2019  3:30 PM
Steinhagen Reservoir (TX) 82.55 82.40 0.15 5/26/2019  2:00 PM
Stillhouse Hollow (TX) 630.09 622.00 8.09 5/26/2019  3:00 PM
Tawakoni (TX) 438.64 437.50 1.14 5/26/2019  3:15 PM
Texana (TX) 43.80 44.00 -0.20 5/26/2019  1:00 PM
Texoma (TX) 627.24 617.00 10.24 5/26/2019  9:00 AM
Toledo Bend (TX LA) 172.92 172.00 0.92 5/22/2019  11:30 AM
Travis (TX) 681.08 681.00 0.08 5/26/2019  3:00 PM
Twin Buttes (TX) 1,934.30 1,940.00 -5.70 5/26/2019  12:00 AM
Tyler (TX) 375.70 375.50 0.20 5/26/2019  10:41 AM
Waco (TX) 474.70 462.00 12.70 5/26/2019  3:15 PM
Waxahachie (TX) 531.93 5/26/2019  12:00 AM
Weatherford (TX) 895.94 896.00 -0.06 5/26/2019  12:45 AM
White River (TX) 2,350.65 5/26/2019  3:15 PM
Whitney (TX) 548.07 533.00 15.07 5/26/2019  3:15 PM
Worth (TX) 594.84 594.00 0.84 5/26/2019  3:00 PM
Wright Patman (TX) 241.13 220.60 20.53 5/26/2019  10:41 AM


CURRENT DAILY STREAMFLOW CONDITIONS
High
90th percentile
75th - 89th percentile
25th - 74th percentile
10th - 24th percentile
10th percentile
Low
Not ranked

The colored dots on this map depict streamflow conditions as a percentile, which is computed from the period of record for the current day of the year. Only stations with at least 30 years of record are used. The gray circles indicate other stations that were not ranked in percentiles either because they have fewer than 30 years of record or because they report parameters other than streamflow. Some stations, for example, measure stage only.
U.S. Daily Streamflow Conditions



U.S. Drought Monitor